sensor_id;sensor_type;location;lat;lon;timestamp;pressure;altitude;pressure_sealevel;temperature;humidity
48364;BME280;34170;54.364;18.582;2023-02-21T00:00:42;98534.47;;;7.57;86.67
48364;BME280;34170;54.364;18.582;2023-02-21T00:03:28;98536.97;;;7.58;87.55
48364;BME280;34170;54.364;18.582;2023-02-21T00:06:14;98540.81;;;7.64;86.37
48364;BME280;34170;54.364;18.582;2023-02-21T00:09:00;98535.13;;;7.51;86.30
48364;BME280;34170;54.364;18.582;2023-02-21T00:11:46;98521.56;;;7.60;87.18
48364;BME280;34170;54.364;18.582;2023-02-21T00:14:32;98549.66;;;7.56;87.13
48364;BME280;34170;54.364;18.582;2023-02-21T00:17:18;98547.66;;;7.58;87.34
48364;BME280;34170;54.364;18.582;2023-02-21T00:20:04;98549.16;;;7.53;86.82
48364;BME280;34170;54.364;18.582;2023-02-21T00:22:51;98554.50;;;7.61;86.17
48364;BME280;34170;54.364;18.582;2023-02-21T00:25:36;98551.16;;;7.67;86.29
48364;BME280;34170;54.364;18.582;2023-02-21T00:28:22;98554.69;;;7.51;86.20
48364;BME280;34170;54.364;18.582;2023-02-21T00:31:08;98559.22;;;7.42;86.17
48364;BME280;34170;54.364;18.582;2023-02-21T00:33:54;98557.19;;;7.69;85.50
48364;BME280;34170;54.364;18.582;2023-02-21T00:36:40;98547.97;;;7.63;86.08
48364;BME280;34170;54.364;18.582;2023-02-21T00:39:26;98561.72;;;7.36;88.69
48364;BME280;34170;54.364;18.582;2023-02-21T00:42:12;98572.25;;;7.62;87.59
48364;BME280;34170;54.364;18.582;2023-02-21T00:44:58;98560.53;;;7.38;88.98
48364;BME280;34170;54.364;18.582;2023-02-21T00:47:45;98568.03;;;7.76;87.72
48364;BME280;34170;54.364;18.582;2023-02-21T00:50:31;98555.19;;;7.47;88.93
48364;BME280;34170;54.364;18.582;2023-02-21T00:53:17;98540.50;;;7.42;89.04
48364;BME280;34170;54.364;18.582;2023-02-21T00:56:03;98549.34;;;7.27;90.49
48364;BME280;34170;54.364;18.582;2023-02-21T00:58:49;98547.31;;;7.45;88.38
48364;BME280;34170;54.364;18.582;2023-02-21T01:01:36;98538.78;;;7.17;90.38
48364;BME280;34170;54.364;18.582;2023-02-21T01:04:22;98562.22;;;7.39;89.02
48364;BME280;34170;54.364;18.582;2023-02-21T01:07:08;98530.09;;;7.15;89.34
48364;BME280;34170;54.364;18.582;2023-02-21T01:09:54;98539.31;;;7.37;89.29
48364;BME280;34170;54.364;18.582;2023-02-21T01:12:42;98549.31;;;7.35;89.34
48364;BME280;34170;54.364;18.582;2023-02-21T01:15:27;98552.34;;;7.23;89.76
48364;BME280;34170;54.364;18.582;2023-02-21T01:18:14;98552.69;;;7.29;89.48
48364;BME280;34170;54.364;18.582;2023-02-21T01:21:02;98557.19;;;7.61;87.16
48364;BME280;34170;54.364;18.582;2023-02-21T01:23:48;98565.53;;;7.25;89.54
48364;BME280;34170;54.364;18.582;2023-02-21T01:26:36;98553.16;;;7.24;88.87
48364;BME280;34170;54.364;18.582;2023-02-21T01:29:23;98557.03;;;7.38;88.33
48364;BME280;34170;54.364;18.582;2023-02-21T01:32:09;98552.84;;;7.27;87.80
48364;BME280;34170;54.364;18.582;2023-02-21T01:34:55;98514.06;;;7.31;88.14
48364;BME280;34170;54.364;18.582;2023-02-21T01:37:41;98549.50;;;7.25;88.89
48364;BME280;34170;54.364;18.582;2023-02-21T01:40:27;98543.31;;;7.16;89.54
48364;BME280;34170;54.364;18.582;2023-02-21T01:43:19;98512.75;;;7.11;89.61
48364;BME280;34170;54.364;18.582;2023-02-21T01:46:09;98524.06;;;7.04;89.71
48364;BME280;34170;54.364;18.582;2023-02-21T01:48:57;98525.75;;;7.05;89.22
48364;BME280;34170;54.364;18.582;2023-02-21T01:51:44;98529.28;;;7.31;89.50
48364;BME280;34170;54.364;18.582;2023-02-21T01:54:33;98518.91;;;6.95;89.35
48364;BME280;34170;54.364;18.582;2023-02-21T01:57:20;98531.63;;;7.09;88.71
48364;BME280;34170;54.364;18.582;2023-02-21T02:00:10;98521.41;;;7.29;86.44
48364;BME280;34170;54.364;18.582;2023-02-21T02:03:04;98520.75;;;7.19;87.84
48364;BME280;34170;54.364;18.582;2023-02-21T02:05:56;98525.28;;;7.10;88.41
48364;BME280;34170;54.364;18.582;2023-02-21T02:08:43;98517.59;;;7.23;87.92
48364;BME280;34170;54.364;18.582;2023-02-21T02:14:36;98514.91;;;7.15;88.02
48364;BME280;34170;54.364;18.582;2023-02-21T02:32:00;98490.00;;;6.98;86.08
48364;BME280;34170;54.364;18.582;2023-02-21T02:45:12;98490.84;;;7.07;85.42
48364;BME280;34170;54.364;18.582;2023-02-21T02:47:44;98488.16;;;6.99;85.26
48364;BME280;34170;54.364;18.582;2023-02-21T02:50:15;98494.88;;;7.03;85.91
48364;BME280;34170;54.364;18.582;2023-02-21T02:52:55;98506.38;;;7.20;86.09
48364;BME280;34170;54.364;18.582;2023-02-21T02:55:43;98507.88;;;7.06;86.81
48364;BME280;34170;54.364;18.582;2023-02-21T02:58:14;98509.38;;;7.00;86.67
48364;BME280;34170;54.364;18.582;2023-02-21T03:00:46;98507.03;;;6.97;87.25
48364;BME280;34170;54.364;18.582;2023-02-21T03:03:23;98520.75;;;7.19;86.73
48364;BME280;34170;54.364;18.582;2023-02-21T03:06:04;98510.06;;;7.11;87.52
48364;BME280;34170;54.364;18.582;2023-02-21T03:11:23;98544.81;;;7.27;87.40
48364;BME280;34170;54.364;18.582;2023-02-21T03:14:14;98539.97;;;7.22;87.54
48364;BME280;34170;54.364;18.582;2023-02-21T03:16:49;98539.81;;;6.99;89.21
48364;BME280;34170;54.364;18.582;2023-02-21T03:19:23;98541.47;;;7.09;88.68
48364;BME280;34170;54.364;18.582;2023-02-21T03:21:56;98549.16;;;7.20;88.44
48364;BME280;34170;54.364;18.582;2023-02-21T03:24:25;98546.16;;;7.15;87.46
48364;BME280;34170;54.364;18.582;2023-02-21T03:27:01;98563.66;;;7.01;89.15
48364;BME280;34170;54.364;18.582;2023-02-21T03:29:57;98551.97;;;6.94;88.57
48364;BME280;34170;54.364;18.582;2023-02-21T03:32:30;98571.19;;;6.97;88.12
48364;BME280;34170;54.364;18.582;2023-02-21T03:35:01;98558.84;;;6.96;89.07
48364;BME280;34170;54.364;18.582;2023-02-21T03:37:42;98597.22;;;6.87;89.13
48364;BME280;34170;54.364;18.582;2023-02-21T03:40:31;98599.75;;;6.97;87.64
48364;BME280;34170;54.364;18.582;2023-02-21T03:43:02;98613.13;;;7.13;86.41
48364;BME280;34170;54.364;18.582;2023-02-21T03:45:35;98586.56;;;7.12;85.82
48364;BME280;34170;54.364;18.582;2023-02-21T03:48:17;98592.09;;;7.18;85.78
48364;BME280;34170;54.364;18.582;2023-02-21T03:51:00;98584.09;;;7.10;86.64
48364;BME280;34170;54.364;18.582;2023-02-21T03:53:33;98596.66;;;7.42;84.86
48364;BME280;34170;54.364;18.582;2023-02-21T03:56:02;98615.50;;;7.33;85.35
48364;BME280;34170;54.364;18.582;2023-02-21T03:58:45;98606.34;;;7.35;85.11
48364;BME280;34170;54.364;18.582;2023-02-21T04:01:14;98609.50;;;7.63;84.25
48364;BME280;34170;54.364;18.582;2023-02-21T04:03:42;98605.69;;;7.50;84.46
48364;BME280;34170;54.364;18.582;2023-02-21T04:06:10;98576.91;;;7.27;85.32
48364;BME280;34170;54.364;18.582;2023-02-21T04:08:37;98604.34;;;7.54;84.48
48364;BME280;34170;54.364;18.582;2023-02-21T04:11:05;98586.94;;;7.33;84.93
48364;BME280;34170;54.364;18.582;2023-02-21T04:13:34;98604.63;;;7.18;86.86
48364;BME280;34170;54.364;18.582;2023-02-21T04:16:03;98594.94;;;7.09;87.27
48364;BME280;34170;54.364;18.582;2023-02-21T04:18:32;98601.44;;;7.22;87.42
48364;BME280;34170;54.364;18.582;2023-02-21T04:21:03;98604.84;;;7.41;86.98
48364;BME280;34170;54.364;18.582;2023-02-21T04:23:30;98598.78;;;7.14;87.51
48364;BME280;34170;54.364;18.582;2023-02-21T04:25:58;98603.66;;;7.35;86.64
48364;BME280;34170;54.364;18.582;2023-02-21T04:28:33;98593.28;;;7.24;86.18
48364;BME280;34170;54.364;18.582;2023-02-21T04:31:01;98594.97;;;7.25;86.88
48364;BME280;34170;54.364;18.582;2023-02-21T04:33:29;98598.63;;;7.24;86.24
48364;BME280;34170;54.364;18.582;2023-02-21T04:35:56;98609.34;;;7.49;85.46
48364;BME280;34170;54.364;18.582;2023-02-21T04:38:31;98594.94;;;7.33;86.32
48364;BME280;34170;54.364;18.582;2023-02-21T04:40:59;98609.00;;;7.27;86.40
48364;BME280;34170;54.364;18.582;2023-02-21T04:43:28;98610.66;;;7.36;87.26
48364;BME280;34170;54.364;18.582;2023-02-21T04:45:56;98608.00;;;7.28;87.73
48364;BME280;34170;54.364;18.582;2023-02-21T04:48:24;98608.31;;;7.25;88.26
48364;BME280;34170;54.364;18.582;2023-02-21T04:50:52;98604.25;;;7.04;89.30
48364;BME280;34170;54.364;18.582;2023-02-21T04:53:23;98633.38;;;7.24;89.39
48364;BME280;34170;54.364;18.582;2023-02-21T04:55:50;98636.91;;;7.24;88.98
48364;BME280;34170;54.364;18.582;2023-02-21T04:58:17;98644.75;;;7.26;89.80
48364;BME280;34170;54.364;18.582;2023-02-21T05:00:45;98641.41;;;7.24;88.95
48364;BME280;34170;54.364;18.582;2023-02-21T05:03:12;98623.31;;;7.10;89.46
48364;BME280;34170;54.364;18.582;2023-02-21T05:05:40;98645.38;;;7.12;90.81
48364;BME280;34170;54.364;18.582;2023-02-21T05:08:07;98633.16;;;7.01;90.46
48364;BME280;34170;54.364;18.582;2023-02-21T05:10:35;98640.56;;;7.23;89.79
48364;BME280;34170;54.364;18.582;2023-02-21T05:13:12;98639.72;;;7.06;90.57
48364;BME280;34170;54.364;18.582;2023-02-21T05:15:41;98646.81;;;7.40;89.70
48364;BME280;34170;54.364;18.582;2023-02-21T05:18:08;98651.44;;;7.14;92.50
48364;BME280;34170;54.364;18.582;2023-02-21T05:20:36;98630.94;;;6.88;93.82
48364;BME280;34170;54.364;18.582;2023-02-21T05:23:03;98664.91;;;7.04;92.57
48364;BME280;34170;54.364;18.582;2023-02-21T05:25:40;98638.72;;;7.16;91.60
48364;BME280;34170;54.364;18.582;2023-02-21T05:28:07;98664.59;;;7.15;91.38
48364;BME280;34170;54.364;18.582;2023-02-21T05:30:35;98667.13;;;7.17;91.64
48364;BME280;34170;54.364;18.582;2023-02-21T05:33:02;98677.50;;;7.20;92.15
48364;BME280;34170;54.364;18.582;2023-02-21T05:35:30;98660.13;;;7.24;91.58
48364;BME280;34170;54.364;18.582;2023-02-21T05:37:57;98669.03;;;6.90;92.86
48364;BME280;34170;54.364;18.582;2023-02-21T05:40:25;98666.28;;;7.16;91.99
48364;BME280;34170;54.364;18.582;2023-02-21T05:42:52;98672.78;;;7.05;91.50
48364;BME280;34170;54.364;18.582;2023-02-21T05:45:20;98687.97;;;7.05;91.30
48364;BME280;34170;54.364;18.582;2023-02-21T05:47:47;98688.06;;;7.38;89.27
48364;BME280;34170;54.364;18.582;2023-02-21T05:50:14;98699.91;;;7.27;90.08
48364;BME280;34170;54.364;18.582;2023-02-21T05:52:42;98689.56;;;7.32;89.62
48364;BME280;34170;54.364;18.582;2023-02-21T05:55:10;98703.97;;;7.48;89.97
48364;BME280;34170;54.364;18.582;2023-02-21T05:57:38;98698.75;;;7.38;89.15
48364;BME280;34170;54.364;18.582;2023-02-21T06:00:06;98712.81;;;7.32;89.39
48364;BME280;34170;54.364;18.582;2023-02-21T06:02:37;98707.25;;;7.25;89.75
48364;BME280;34170;54.364;18.582;2023-02-21T06:05:05;98707.72;;;7.12;89.62
48364;BME280;34170;54.364;18.582;2023-02-21T06:07:33;98720.44;;;7.18;89.65
48364;BME280;34170;54.364;18.582;2023-02-21T06:10:00;98727.69;;;7.42;88.03
48364;BME280;34170;54.364;18.582;2023-02-21T06:12:28;98742.38;;;7.30;88.42
48364;BME280;34170;54.364;18.582;2023-02-21T06:14:55;98733.69;;;7.28;89.07
48364;BME280;34170;54.364;18.582;2023-02-21T06:17:23;98724.97;;;7.26;88.66
48364;BME280;34170;54.364;18.582;2023-02-21T06:19:50;98714.75;;;7.21;89.55
48364;BME280;34170;54.364;18.582;2023-02-21T06:22:18;98737.69;;;7.32;89.38
48364;BME280;34170;54.364;18.582;2023-02-21T06:24:46;98757.81;;;7.53;88.93
48364;BME280;34170;54.364;18.582;2023-02-21T06:27:13;98748.25;;;7.42;87.94
48364;BME280;34170;54.364;18.582;2023-02-21T06:29:41;98742.63;;;7.11;90.66
48364;BME280;34170;54.364;18.582;2023-02-21T06:32:09;98737.03;;;7.30;90.19
48364;BME280;34170;54.364;18.582;2023-02-21T06:34:36;98751.31;;;7.13;91.06
48364;BME280;34170;54.364;18.582;2023-02-21T06:37:04;98774.81;;;7.35;89.91
48364;BME280;34170;54.364;18.582;2023-02-21T06:39:31;98769.75;;;7.24;91.11
48364;BME280;34170;54.364;18.582;2023-02-21T06:41:58;98769.78;;;7.32;90.02
48364;BME280;34170;54.364;18.582;2023-02-21T06:44:26;98781.34;;;7.41;88.59
48364;BME280;34170;54.364;18.582;2023-02-21T06:46:53;98782.19;;;7.41;88.80
48364;BME280;34170;54.364;18.582;2023-02-21T06:49:21;98784.06;;;7.57;88.77
48364;BME280;34170;54.364;18.582;2023-02-21T06:51:48;98799.94;;;7.51;88.39
48364;BME280;34170;54.364;18.582;2023-02-21T06:54:16;98813.97;;;7.53;88.55
48364;BME280;34170;54.364;18.582;2023-02-21T06:56:43;98824.97;;;7.41;90.25
48364;BME280;34170;54.364;18.582;2023-02-21T06:59:11;98805.69;;;7.72;88.36
48364;BME280;34170;54.364;18.582;2023-02-21T07:01:38;98812.47;;;7.50;89.39
48364;BME280;34170;54.364;18.582;2023-02-21T07:04:06;98817.31;;;7.47;89.37
48364;BME280;34170;54.364;18.582;2023-02-21T07:06:33;98829.72;;;7.56;88.60
48364;BME280;34170;54.364;18.582;2023-02-21T07:09:01;98831.06;;;7.60;87.77
48364;BME280;34170;54.364;18.582;2023-02-21T07:11:31;98832.44;;;7.72;88.30
48364;BME280;34170;54.364;18.582;2023-02-21T07:14:00;98837.28;;;7.69;87.09
48364;BME280;34170;54.364;18.582;2023-02-21T07:16:27;98840.19;;;7.83;86.76
48364;BME280;34170;54.364;18.582;2023-02-21T07:18:55;98845.94;;;8.21;84.23
48364;BME280;34170;54.364;18.582;2023-02-21T07:21:22;98857.16;;;8.33;83.79
48364;BME280;34170;54.364;18.582;2023-02-21T07:23:51;98862.75;;;8.73;81.78
48364;BME280;34170;54.364;18.582;2023-02-21T07:26:19;98867.09;;;8.49;81.43
48364;BME280;34170;54.364;18.582;2023-02-21T07:28:47;98838.81;;;8.55;81.91
48364;BME280;34170;54.364;18.582;2023-02-21T07:31:15;98866.75;;;8.85;79.62
48364;BME280;34170;54.364;18.582;2023-02-21T07:33:45;98881.72;;;9.44;76.80
48364;BME280;34170;54.364;18.582;2023-02-21T07:36:13;98884.41;;;9.44;75.53
48364;BME280;34170;54.364;18.582;2023-02-21T07:38:40;98887.06;;;10.23;72.60
48364;BME280;34170;54.364;18.582;2023-02-21T07:41:08;98882.06;;;9.49;74.50
48364;BME280;34170;54.364;18.582;2023-02-21T07:43:35;98879.09;;;9.35;74.74
48364;BME280;34170;54.364;18.582;2023-02-21T07:46:03;98889.50;;;9.22;75.71
48364;BME280;34170;54.364;18.582;2023-02-21T07:48:30;98912.63;;;9.23;76.22
48364;BME280;34170;54.364;18.582;2023-02-21T07:50:58;98910.66;;;8.76;78.46
48364;BME280;34170;54.364;18.582;2023-02-21T07:53:25;98909.13;;;8.65;79.38
48364;BME280;34170;54.364;18.582;2023-02-21T07:55:52;98897.91;;;9.11;77.67
48364;BME280;34170;54.364;18.582;2023-02-21T07:58:20;98905.59;;;9.30;76.76
48364;BME280;34170;54.364;18.582;2023-02-21T08:00:47;98916.94;;;10.28;71.06
48364;BME280;34170;54.364;18.582;2023-02-21T08:03:15;98917.88;;;9.72;73.93
48364;BME280;34170;54.364;18.582;2023-02-21T08:05:43;98912.81;;;9.22;75.35
48364;BME280;34170;54.364;18.582;2023-02-21T08:08:14;98917.53;;;9.76;73.10
48364;BME280;34170;54.364;18.582;2023-02-21T08:10:42;98919.31;;;9.91;72.79
48364;BME280;34170;54.364;18.582;2023-02-21T08:13:09;98922.81;;;9.92;72.23
48364;BME280;34170;54.364;18.582;2023-02-21T08:15:37;98927.81;;;11.27;67.03
48364;BME280;34170;54.364;18.582;2023-02-21T08:18:04;98929.44;;;10.98;66.62
48364;BME280;34170;54.364;18.582;2023-02-21T08:20:32;98943.56;;;11.15;65.35
48364;BME280;34170;54.364;18.582;2023-02-21T08:22:59;98945.31;;;10.62;67.89
48364;BME280;34170;54.364;18.582;2023-02-21T08:25:27;98931.25;;;9.25;74.15
48364;BME280;34170;54.364;18.582;2023-02-21T08:27:54;98943.00;;;8.99;76.32
48364;BME280;34170;54.364;18.582;2023-02-21T08:30:21;98955.75;;;9.05;76.74
48364;BME280;34170;54.364;18.582;2023-02-21T08:32:49;98956.47;;;9.63;74.18
48364;BME280;34170;54.364;18.582;2023-02-21T08:35:18;98962.50;;;10.53;70.90
48364;BME280;34170;54.364;18.582;2023-02-21T08:37:48;98969.78;;;9.96;71.30
48364;BME280;34170;54.364;18.582;2023-02-21T08:40:19;98979.28;;;10.23;70.98
48364;BME280;34170;54.364;18.582;2023-02-21T08:42:52;98982.06;;;9.90;72.13
48364;BME280;34170;54.364;18.582;2023-02-21T08:45:21;98962.56;;;9.57;74.98
48364;BME280;34170;54.364;18.582;2023-02-21T08:47:50;98980.63;;;9.71;73.54
48364;BME280;34170;54.364;18.582;2023-02-21T08:50:19;98981.47;;;9.80;73.28
48364;BME280;34170;54.364;18.582;2023-02-21T08:52:48;98995.09;;;9.29;76.11
48364;BME280;34170;54.364;18.582;2023-02-21T08:55:16;99002.81;;;9.41;77.51
48364;BME280;34170;54.364;18.582;2023-02-21T08:57:44;98997.44;;;9.49;76.04
48364;BME280;34170;54.364;18.582;2023-02-21T09:00:13;98990.41;;;9.48;75.65
48364;BME280;34170;54.364;18.582;2023-02-21T09:02:42;98999.38;;;9.88;75.05
48364;BME280;34170;54.364;18.582;2023-02-21T09:05:12;99017.75;;;9.51;74.94
48364;BME280;34170;54.364;18.582;2023-02-21T09:07:41;99024.06;;;9.83;74.49
48364;BME280;34170;54.364;18.582;2023-02-21T09:10:09;99017.56;;;8.95;77.50
48364;BME280;34170;54.364;18.582;2023-02-21T09:12:37;99027.97;;;9.40;76.49
48364;BME280;34170;54.364;18.582;2023-02-21T09:15:05;99028.00;;;9.23;76.42
48364;BME280;34170;54.364;18.582;2023-02-21T09:17:33;99044.06;;;9.31;75.91
48364;BME280;34170;54.364;18.582;2023-02-21T09:20:05;99055.06;;;8.79;79.02
48364;BME280;34170;54.364;18.582;2023-02-21T09:22:33;99038.19;;;9.03;79.42
48364;BME280;34170;54.364;18.582;2023-02-21T09:25:01;99050.25;;;9.07;78.80
48364;BME280;34170;54.364;18.582;2023-02-21T09:27:29;99047.25;;;9.02;77.57
48364;BME280;34170;54.364;18.582;2023-02-21T09:30:09;99056.31;;;9.09;79.50
48364;BME280;34170;54.364;18.582;2023-02-21T09:32:37;99048.75;;;9.13;77.42
48364;BME280;34170;54.364;18.582;2023-02-21T09:35:06;99037.16;;;8.88;78.79
48364;BME280;34170;54.364;18.582;2023-02-21T09:37:37;99056.63;;;9.23;78.83
48364;BME280;34170;54.364;18.582;2023-02-21T09:42:42;99071.84;;;8.89;79.92
48364;BME280;34170;54.364;18.582;2023-02-21T09:45:14;99072.97;;;8.70;80.84
48364;BME280;34170;54.364;18.582;2023-02-21T09:47:44;99079.63;;;9.25;77.94
48364;BME280;34170;54.364;18.582;2023-02-21T09:50:14;99085.63;;;9.11;78.74
48364;BME280;34170;54.364;18.582;2023-02-21T09:52:43;99077.94;;;9.49;77.79
48364;BME280;34170;54.364;18.582;2023-02-21T09:57:46;99083.38;;;8.73;80.53
48364;BME280;34170;54.364;18.582;2023-02-21T10:00:20;99097.88;;;9.13;78.25
48364;BME280;34170;54.364;18.582;2023-02-21T10:08:45;99115.78;;;9.05;81.23
48364;BME280;34170;54.364;18.582;2023-02-21T10:16:56;99133.84;;;8.86;81.25
48364;BME280;34170;54.364;18.582;2023-02-21T10:19:29;99144.22;;;8.81;80.81
48364;BME280;34170;54.364;18.582;2023-02-21T10:21:58;99142.88;;;8.85;80.89
48364;BME280;34170;54.364;18.582;2023-02-21T10:24:27;99133.03;;;8.51;82.36
48364;BME280;34170;54.364;18.582;2023-02-21T10:27:04;99152.28;;;8.89;80.81
48364;BME280;34170;54.364;18.582;2023-02-21T10:29:54;99136.41;;;8.53;81.10
48364;BME280;34170;54.364;18.582;2023-02-21T10:32:24;99151.63;;;8.87;79.91
48364;BME280;34170;54.364;18.582;2023-02-21T10:34:53;99154.25;;;8.79;80.13
48364;BME280;34170;54.364;18.582;2023-02-21T10:39:54;99163.84;;;8.90;80.17
48364;BME280;34170;54.364;18.582;2023-02-21T10:42:46;99159.81;;;8.94;79.51
48364;BME280;34170;54.364;18.582;2023-02-21T10:45:18;99161.31;;;8.80;79.77
48364;BME280;34170;54.364;18.582;2023-02-21T10:53:05;99171.47;;;9.11;78.80
48364;BME280;34170;54.364;18.582;2023-02-21T10:55:33;99177.94;;;9.76;76.47
48364;BME280;34170;54.364;18.582;2023-02-21T10:58:08;99173.34;;;9.35;76.22
48364;BME280;34170;54.364;18.582;2023-02-21T11:00:37;99181.16;;;9.87;74.58
48364;BME280;34170;54.364;18.582;2023-02-21T11:03:25;99186.84;;;9.68;74.77
48364;BME280;34170;54.364;18.582;2023-02-21T11:05:57;99193.75;;;10.03;73.48
48364;BME280;34170;54.364;18.582;2023-02-21T11:08:38;99187.19;;;10.06;72.77
48364;BME280;34170;54.364;18.582;2023-02-21T11:11:07;99199.91;;;9.54;75.20
48364;BME280;34170;54.364;18.582;2023-02-21T11:13:34;99205.78;;;9.66;74.75
48364;BME280;34170;54.364;18.582;2023-02-21T11:16:15;99214.53;;;9.85;73.48
48364;BME280;34170;54.364;18.582;2023-02-21T11:18:43;99214.19;;;9.80;74.13
48364;BME280;34170;54.364;18.582;2023-02-21T11:21:13;99205.97;;;9.81;74.55
48364;BME280;34170;54.364;18.582;2023-02-21T11:23:52;99214.69;;;9.83;74.58
48364;BME280;34170;54.364;18.582;2023-02-21T11:26:27;99208.09;;;9.53;73.95
48364;BME280;34170;54.364;18.582;2023-02-21T11:29:29;99225.72;;;9.47;74.56
48364;BME280;34170;54.364;18.582;2023-02-21T11:31:54;99224.91;;;9.55;76.00
48364;BME280;34170;54.364;18.582;2023-02-21T11:34:27;99216.50;;;9.50;75.44
48364;BME280;34170;54.364;18.582;2023-02-21T11:37:01;99232.22;;;8.59;81.86
48364;BME280;34170;54.364;18.582;2023-02-21T11:39:33;99229.81;;;9.17;79.74
48364;BME280;34170;54.364;18.582;2023-02-21T11:42:03;99240.22;;;9.20;78.70
48364;BME280;34170;54.364;18.582;2023-02-21T11:44:39;99240.69;;;9.07;79.49
48364;BME280;34170;54.364;18.582;2023-02-21T11:47:24;99236.19;;;9.16;79.12
48364;BME280;34170;54.364;18.582;2023-02-21T11:50:17;99236.28;;;8.98;79.51
48364;BME280;34170;54.364;18.582;2023-02-21T11:52:50;99243.81;;;8.94;80.20
48364;BME280;34170;54.364;18.582;2023-02-21T11:55:21;99230.44;;;9.03;79.48
48364;BME280;34170;54.364;18.582;2023-02-21T12:00:28;99244.81;;;9.36;77.60
48364;BME280;34170;54.364;18.582;2023-02-21T12:02:59;99257.41;;;9.44;77.32
48364;BME280;34170;54.364;18.582;2023-02-21T12:05:46;99236.91;;;8.92;79.16
48364;BME280;34170;54.364;18.582;2023-02-21T12:09:06;99269.69;;;9.12;78.48
48364;BME280;34170;54.364;18.582;2023-02-21T12:14:43;99271.84;;;9.43;79.55
48364;BME280;34170;54.364;18.582;2023-02-21T12:23:21;99266.84;;;9.56;77.01
48364;BME280;34170;54.364;18.582;2023-02-21T12:31:26;99271.09;;;9.75;76.46
48364;BME280;34170;54.364;18.582;2023-02-21T12:34:36;99284.19;;;9.27;77.88
48364;BME280;34170;54.364;18.582;2023-02-21T12:37:30;99291.56;;;9.33;76.81
48364;BME280;34170;54.364;18.582;2023-02-21T12:43:05;99288.50;;;9.63;74.85
48364;BME280;34170;54.364;18.582;2023-02-21T12:51:07;99298.16;;;9.98;73.27
48364;BME280;34170;54.364;18.582;2023-02-21T12:53:40;99301.06;;;9.54;73.94
48364;BME280;34170;54.364;18.582;2023-02-21T12:56:30;99283.72;;;9.40;76.37
48364;BME280;34170;54.364;18.582;2023-02-21T12:59:24;99296.25;;;9.74;74.85
48364;BME280;34170;54.364;18.582;2023-02-21T13:01:57;99304.84;;;9.86;74.03
48364;BME280;34170;54.364;18.582;2023-02-21T13:07:18;99309.81;;;9.64;73.31
48364;BME280;34170;54.364;18.582;2023-02-21T13:10:22;99295.47;;;9.39;73.13
48364;BME280;34170;54.364;18.582;2023-02-21T13:13:01;99298.69;;;9.51;72.87
48364;BME280;34170;54.364;18.582;2023-02-21T13:15:31;99298.47;;;9.44;72.96
48364;BME280;34170;54.364;18.582;2023-02-21T13:18:03;99311.78;;;9.54;72.55
48364;BME280;34170;54.364;18.582;2023-02-21T13:20:41;99321.81;;;9.44;72.78
48364;BME280;34170;54.364;18.582;2023-02-21T13:23:12;99309.97;;;8.86;75.18
48364;BME280;34170;54.364;18.582;2023-02-21T13:28:45;99325.25;;;9.28;74.82
48364;BME280;34170;54.364;18.582;2023-02-21T13:31:23;99329.06;;;9.51;74.01
48364;BME280;34170;54.364;18.582;2023-02-21T13:34:00;99324.53;;;9.52;74.03
48364;BME280;34170;54.364;18.582;2023-02-21T13:36:32;99327.22;;;9.60;73.84
48364;BME280;34170;54.364;18.582;2023-02-21T13:41:44;99351.94;;;9.72;72.05
48364;BME280;34170;54.364;18.582;2023-02-21T14:10:57;99408.00;;;8.88;75.19
48364;BME280;34170;54.364;18.582;2023-02-21T14:13:48;99411.69;;;9.13;74.91
48364;BME280;34170;54.364;18.582;2023-02-21T14:16:46;99412.78;;;9.03;74.15
48364;BME280;34170;54.364;18.582;2023-02-21T14:22:23;99426.13;;;9.12;73.43
48364;BME280;34170;54.364;18.582;2023-02-21T14:25:07;99429.75;;;8.85;74.50
48364;BME280;34170;54.364;18.582;2023-02-21T14:27:42;99421.41;;;8.70;75.60
48364;BME280;34170;54.364;18.582;2023-02-21T14:32:40;99434.28;;;8.67;76.17
48364;BME280;34170;54.364;18.582;2023-02-21T14:35:24;99420.47;;;8.80;76.30
48364;BME280;34170;54.364;18.582;2023-02-21T14:38:05;99443.88;;;8.87;76.64
48364;BME280;34170;54.364;18.582;2023-02-21T14:46:01;99468.75;;;8.62;78.86
48364;BME280;34170;54.364;18.582;2023-02-21T14:51:46;99472.69;;;8.39;78.09
48364;BME280;34170;54.364;18.582;2023-02-21T15:05:26;99506.19;;;8.53;79.12
48364;BME280;34170;54.364;18.582;2023-02-21T15:08:01;99505.13;;;8.46;79.46
48364;BME280;34170;54.364;18.582;2023-02-21T15:10:38;99512.63;;;8.61;78.15
48364;BME280;34170;54.364;18.582;2023-02-21T15:13:20;99494.25;;;8.66;78.82
48364;BME280;34170;54.364;18.582;2023-02-21T15:15:53;99513.09;;;8.28;80.10
48364;BME280;34170;54.364;18.582;2023-02-21T15:18:30;99517.66;;;8.64;78.89
48364;BME280;34170;54.364;18.582;2023-02-21T15:23:43;99511.69;;;8.24;80.25
48364;BME280;34170;54.364;18.582;2023-02-21T15:26:25;99522.31;;;8.44;79.74
48364;BME280;34170;54.364;18.582;2023-02-21T15:29:14;99521.34;;;8.35;81.24
48364;BME280;34170;54.364;18.582;2023-02-21T15:31:54;99528.53;;;8.34;81.76
48364;BME280;34170;54.364;18.582;2023-02-21T15:34:41;99528.13;;;8.39;81.14
48364;BME280;34170;54.364;18.582;2023-02-21T15:37:16;99543.66;;;8.35;81.34
48364;BME280;34170;54.364;18.582;2023-02-21T15:39:54;99542.50;;;8.38;81.32
48364;BME280;34170;54.364;18.582;2023-02-21T15:42:23;99552.59;;;8.16;82.91
48364;BME280;34170;54.364;18.582;2023-02-21T15:44:59;99554.72;;;8.40;82.13
48364;BME280;34170;54.364;18.582;2023-02-21T15:47:29;99554.91;;;8.39;81.77
48364;BME280;34170;54.364;18.582;2023-02-21T15:50:00;99571.19;;;8.55;81.51
48364;BME280;34170;54.364;18.582;2023-02-21T15:52:37;99554.31;;;8.17;81.93
48364;BME280;34170;54.364;18.582;2023-02-21T15:57:56;99562.88;;;7.83;85.51
48364;BME280;34170;54.364;18.582;2023-02-21T16:00:25;99576.56;;;8.18;83.90
48364;BME280;34170;54.364;18.582;2023-02-21T16:06:18;99580.09;;;8.18;84.95
48364;BME280;34170;54.364;18.582;2023-02-21T16:11:36;99587.28;;;8.08;84.15